sensor_id;sensor_type;location;lat;lon;timestamp;temperature;humidity
26053;DHT22;13826;51.186;4.450;2022-08-03T00:01:39;22.70;1.00
26053;DHT22;13826;51.186;4.450;2022-08-03T00:04:05;22.70;1.00
26053;DHT22;13826;51.186;4.450;2022-08-03T00:06:31;22.70;1.00
26053;DHT22;13826;51.186;4.450;2022-08-03T00:08:57;22.70;1.00
26053;DHT22;13826;51.186;4.450;2022-08-03T00:11:22;22.70;1.00
26053;DHT22;13826;51.186;4.450;2022-08-03T00:13:48;22.70;1.00
26053;DHT22;13826;51.186;4.450;2022-08-03T00:16:14;22.50;1.00
26053;DHT22;13826;51.186;4.450;2022-08-03T00:18:40;22.50;1.00
26053;DHT22;13826;51.186;4.450;2022-08-03T00:21:06;22.50;1.00
26053;DHT22;13826;51.186;4.450;2022-08-03T00:23:33;22.60;1.00
26053;DHT22;13826;51.186;4.450;2022-08-03T00:25:58;22.50;1.00
26053;DHT22;13826;51.186;4.450;2022-08-03T00:28:24;22.40;1.00
26053;DHT22;13826;51.186;4.450;2022-08-03T00:30:50;22.30;1.00
26053;DHT22;13826;51.186;4.450;2022-08-03T00:33:16;22.40;1.00
26053;DHT22;13826;51.186;4.450;2022-08-03T00:35:42;22.40;1.00
26053;DHT22;13826;51.186;4.450;2022-08-03T00:38:07;22.40;1.00
26053;DHT22;13826;51.186;4.450;2022-08-03T00:40:33;22.40;1.00
26053;DHT22;13826;51.186;4.450;2022-08-03T00:43:01;22.40;1.00
26053;DHT22;13826;51.186;4.450;2022-08-03T00:45:30;22.40;1.00
26053;DHT22;13826;51.186;4.450;2022-08-03T00:47:57;22.40;1.00
26053;DHT22;13826;51.186;4.450;2022-08-03T00:50:24;22.40;99.90
26053;DHT22;13826;51.186;4.450;2022-08-03T00:52:54;22.40;99.90
26053;DHT22;13826;51.186;4.450;2022-08-03T00:55:21;22.40;99.90
26053;DHT22;13826;51.186;4.450;2022-08-03T00:57:47;22.40;99.90
26053;DHT22;13826;51.186;4.450;2022-08-03T01:00:16;22.40;99.90
26053;DHT22;13826;51.186;4.450;2022-08-03T01:02:42;22.40;99.90
26053;DHT22;13826;51.186;4.450;2022-08-03T01:05:08;22.30;99.90
26053;DHT22;13826;51.186;4.450;2022-08-03T01:12:54;22.00;1.00
26053;DHT22;13826;51.186;4.450;2022-08-03T01:15:30;22.00;1.00
26053;DHT22;13826;51.186;4.450;2022-08-03T01:18:04;22.10;1.00
26053;DHT22;13826;51.186;4.450;2022-08-03T01:20:34;22.10;1.00
26053;DHT22;13826;51.186;4.450;2022-08-03T01:23:16;22.10;1.00
26053;DHT22;13826;51.186;4.450;2022-08-03T01:26:05;22.00;1.00
26053;DHT22;13826;51.186;4.450;2022-08-03T01:31:26;21.70;1.00
26053;DHT22;13826;51.186;4.450;2022-08-03T01:33:59;21.70;1.00
26053;DHT22;13826;51.186;4.450;2022-08-03T01:36:42;21.80;1.00
26053;DHT22;13826;51.186;4.450;2022-08-03T01:39:08;21.70;1.00
26053;DHT22;13826;51.186;4.450;2022-08-03T01:41:48;21.70;1.00
26053;DHT22;13826;51.186;4.450;2022-08-03T01:44:15;21.70;1.00
26053;DHT22;13826;51.186;4.450;2022-08-03T01:46:41;21.60;1.00
26053;DHT22;13826;51.186;4.450;2022-08-03T01:49:10;21.50;1.00
26053;DHT22;13826;51.186;4.450;2022-08-03T01:51:41;21.50;1.00
26053;DHT22;13826;51.186;4.450;2022-08-03T01:54:09;21.50;1.00
26053;DHT22;13826;51.186;4.450;2022-08-03T01:56:37;21.40;1.00
26053;DHT22;13826;51.186;4.450;2022-08-03T01:59:06;21.40;1.00
26053;DHT22;13826;51.186;4.450;2022-08-03T02:01:34;21.40;1.00
26053;DHT22;13826;51.186;4.450;2022-08-03T02:04:02;21.30;1.00
26053;DHT22;13826;51.186;4.450;2022-08-03T02:06:31;21.30;1.00
26053;DHT22;13826;51.186;4.450;2022-08-03T02:08:58;21.30;1.00
26053;DHT22;13826;51.186;4.450;2022-08-03T02:11:26;21.30;1.00
26053;DHT22;13826;51.186;4.450;2022-08-03T02:13:53;21.30;1.00
26053;DHT22;13826;51.186;4.450;2022-08-03T02:16:21;21.30;1.00
26053;DHT22;13826;51.186;4.450;2022-08-03T02:18:47;21.30;1.00
26053;DHT22;13826;51.186;4.450;2022-08-03T02:21:14;21.30;1.00
26053;DHT22;13826;51.186;4.450;2022-08-03T02:23:40;21.30;1.00
26053;DHT22;13826;51.186;4.450;2022-08-03T02:26:09;21.20;1.00
26053;DHT22;13826;51.186;4.450;2022-08-03T02:28:40;21.20;1.00
26053;DHT22;13826;51.186;4.450;2022-08-03T02:31:13;21.10;1.00
26053;DHT22;13826;51.186;4.450;2022-08-03T02:33:53;21.10;1.00
26053;DHT22;13826;51.186;4.450;2022-08-03T02:36:28;21.10;1.00
26053;DHT22;13826;51.186;4.450;2022-08-03T02:38:58;21.10;1.00
26053;DHT22;13826;51.186;4.450;2022-08-03T02:41:28;21.20;1.00
26053;DHT22;13826;51.186;4.450;2022-08-03T02:43:56;21.10;1.00
26053;DHT22;13826;51.186;4.450;2022-08-03T02:46:28;21.10;1.00
26053;DHT22;13826;51.186;4.450;2022-08-03T02:48:55;20.90;1.00
26053;DHT22;13826;51.186;4.450;2022-08-03T02:51:22;20.90;1.00
26053;DHT22;13826;51.186;4.450;2022-08-03T02:53:49;21.00;1.00
26053;DHT22;13826;51.186;4.450;2022-08-03T02:56:16;21.00;1.00
26053;DHT22;13826;51.186;4.450;2022-08-03T02:58:43;21.00;1.00
26053;DHT22;13826;51.186;4.450;2022-08-03T03:01:11;20.90;1.00
26053;DHT22;13826;51.186;4.450;2022-08-03T03:03:37;20.90;1.00
26053;DHT22;13826;51.186;4.450;2022-08-03T03:06:05;20.80;1.00
26053;DHT22;13826;51.186;4.450;2022-08-03T03:08:31;20.80;1.00
26053;DHT22;13826;51.186;4.450;2022-08-03T03:10:59;20.70;1.00
26053;DHT22;13826;51.186;4.450;2022-08-03T03:13:29;20.80;1.00
26053;DHT22;13826;51.186;4.450;2022-08-03T03:15:58;20.70;1.00
26053;DHT22;13826;51.186;4.450;2022-08-03T03:18:27;20.80;1.00
26053;DHT22;13826;51.186;4.450;2022-08-03T03:20:54;20.80;1.00
26053;DHT22;13826;51.186;4.450;2022-08-03T03:23:21;20.80;1.00
26053;DHT22;13826;51.186;4.450;2022-08-03T03:25:48;20.80;1.00
26053;DHT22;13826;51.186;4.450;2022-08-03T03:28:14;20.80;1.00
26053;DHT22;13826;51.186;4.450;2022-08-03T03:30:40;20.70;1.00
26053;DHT22;13826;51.186;4.450;2022-08-03T03:33:06;20.70;1.00
26053;DHT22;13826;51.186;4.450;2022-08-03T03:35:32;20.70;1.00
26053;DHT22;13826;51.186;4.450;2022-08-03T03:37:58;20.70;1.00
26053;DHT22;13826;51.186;4.450;2022-08-03T03:40:25;20.80;1.00
26053;DHT22;13826;51.186;4.450;2022-08-03T03:42:51;20.70;1.00
26053;DHT22;13826;51.186;4.450;2022-08-03T03:45:17;20.70;1.00
26053;DHT22;13826;51.186;4.450;2022-08-03T03:47:43;20.70;1.00
26053;DHT22;13826;51.186;4.450;2022-08-03T03:50:09;20.70;1.00
26053;DHT22;13826;51.186;4.450;2022-08-03T03:52:35;20.70;1.00
26053;DHT22;13826;51.186;4.450;2022-08-03T03:55:01;20.70;1.00
26053;DHT22;13826;51.186;4.450;2022-08-03T03:57:27;20.70;1.00
26053;DHT22;13826;51.186;4.450;2022-08-03T03:59:52;20.60;1.00
26053;DHT22;13826;51.186;4.450;2022-08-03T04:02:18;20.50;1.00
26053;DHT22;13826;51.186;4.450;2022-08-03T04:04:44;20.50;1.00
26053;DHT22;13826;51.186;4.450;2022-08-03T04:07:32;20.50;1.00
26053;DHT22;13826;51.186;4.450;2022-08-03T04:10:22;20.60;1.00
26053;DHT22;13826;51.186;4.450;2022-08-03T04:13:09;20.60;1.00
26053;DHT22;13826;51.186;4.450;2022-08-03T04:15:40;20.70;1.00
26053;DHT22;13826;51.186;4.450;2022-08-03T04:18:10;20.60;1.00
26053;DHT22;13826;51.186;4.450;2022-08-03T04:20:38;20.60;1.00
26053;DHT22;13826;51.186;4.450;2022-08-03T04:23:05;20.60;1.00
26053;DHT22;13826;51.186;4.450;2022-08-03T04:25:33;20.70;1.00
26053;DHT22;13826;51.186;4.450;2022-08-03T04:28:01;20.70;1.00
26053;DHT22;13826;51.186;4.450;2022-08-03T04:30:29;20.70;1.00
26053;DHT22;13826;51.186;4.450;2022-08-03T04:32:56;20.70;1.00
26053;DHT22;13826;51.186;4.450;2022-08-03T04:35:29;20.80;1.00
26053;DHT22;13826;51.186;4.450;2022-08-03T04:38:00;20.80;1.00
26053;DHT22;13826;51.186;4.450;2022-08-03T04:40:31;20.80;1.00
26053;DHT22;13826;51.186;4.450;2022-08-03T04:42:57;20.80;1.00
26053;DHT22;13826;51.186;4.450;2022-08-03T04:45:24;20.80;1.00
26053;DHT22;13826;51.186;4.450;2022-08-03T04:47:51;20.80;1.00
26053;DHT22;13826;51.186;4.450;2022-08-03T04:50:18;20.90;1.00
26053;DHT22;13826;51.186;4.450;2022-08-03T04:52:44;21.10;1.00
26053;DHT22;13826;51.186;4.450;2022-08-03T04:55:10;21.30;1.00
26053;DHT22;13826;51.186;4.450;2022-08-03T04:57:35;21.30;1.00
26053;DHT22;13826;51.186;4.450;2022-08-03T05:00:02;21.40;1.00
26053;DHT22;13826;51.186;4.450;2022-08-03T05:02:27;21.50;99.90
26053;DHT22;13826;51.186;4.450;2022-08-03T05:04:53;21.50;99.90
26053;DHT22;13826;51.186;4.450;2022-08-03T05:07:22;21.50;99.90
26053;DHT22;13826;51.186;4.450;2022-08-03T05:09:48;21.70;99.90
26053;DHT22;13826;51.186;4.450;2022-08-03T05:12:13;21.70;99.90
26053;DHT22;13826;51.186;4.450;2022-08-03T05:14:41;22.00;99.90
26053;DHT22;13826;51.186;4.450;2022-08-03T05:17:08;22.40;99.90
26053;DHT22;13826;51.186;4.450;2022-08-03T05:19:34;23.50;1.00
26053;DHT22;13826;51.186;4.450;2022-08-03T05:22:00;24.70;1.00
26053;DHT22;13826;51.186;4.450;2022-08-03T05:24:26;25.60;99.90
26053;DHT22;13826;51.186;4.450;2022-08-03T05:26:52;26.70;99.90
26053;DHT22;13826;51.186;4.450;2022-08-03T05:29:17;27.20;99.90
26053;DHT22;13826;51.186;4.450;2022-08-03T05:31:43;27.90;28.10
26053;DHT22;13826;51.186;4.450;2022-08-03T05:34:09;28.50;1.00
26053;DHT22;13826;51.186;4.450;2022-08-03T05:36:34;29.20;1.00
26053;DHT22;13826;51.186;4.450;2022-08-03T05:39:00;29.90;1.00
26053;DHT22;13826;51.186;4.450;2022-08-03T05:41:26;30.10;1.00
26053;DHT22;13826;51.186;4.450;2022-08-03T05:43:52;30.60;1.00
26053;DHT22;13826;51.186;4.450;2022-08-03T05:46:18;30.90;1.00
26053;DHT22;13826;51.186;4.450;2022-08-03T05:48:45;30.60;1.00
26053;DHT22;13826;51.186;4.450;2022-08-03T05:51:11;30.70;1.00
26053;DHT22;13826;51.186;4.450;2022-08-03T05:53:39;30.90;1.00
26053;DHT22;13826;51.186;4.450;2022-08-03T05:56:05;31.20;1.00
26053;DHT22;13826;51.186;4.450;2022-08-03T05:58:31;32.00;1.00
26053;DHT22;13826;51.186;4.450;2022-08-03T06:00:57;32.20;1.00
26053;DHT22;13826;51.186;4.450;2022-08-03T06:03:22;32.10;1.00
26053;DHT22;13826;51.186;4.450;2022-08-03T06:05:48;32.20;1.00
26053;DHT22;13826;51.186;4.450;2022-08-03T06:08:14;33.30;1.00
26053;DHT22;13826;51.186;4.450;2022-08-03T06:10:39;33.40;1.00
26053;DHT22;13826;51.186;4.450;2022-08-03T06:13:05;33.30;1.00
26053;DHT22;13826;51.186;4.450;2022-08-03T06:15:31;33.40;1.00
26053;DHT22;13826;51.186;4.450;2022-08-03T06:17:58;34.30;1.00
26053;DHT22;13826;51.186;4.450;2022-08-03T06:20:24;34.40;1.00
26053;DHT22;13826;51.186;4.450;2022-08-03T06:22:49;34.40;1.00
26053;DHT22;13826;51.186;4.450;2022-08-03T06:25:15;34.60;1.00
26053;DHT22;13826;51.186;4.450;2022-08-03T06:27:42;34.90;1.00
26053;DHT22;13826;51.186;4.450;2022-08-03T06:30:09;35.80;1.00
26053;DHT22;13826;51.186;4.450;2022-08-03T06:32:41;36.10;1.00
26053;DHT22;13826;51.186;4.450;2022-08-03T06:35:08;35.60;1.00
26053;DHT22;13826;51.186;4.450;2022-08-03T06:40:13;35.80;1.00
26053;DHT22;13826;51.186;4.450;2022-08-03T06:42:40;35.90;1.00
26053;DHT22;13826;51.186;4.450;2022-08-03T06:45:06;36.00;1.00
26053;DHT22;13826;51.186;4.450;2022-08-03T06:47:34;36.90;1.00
26053;DHT22;13826;51.186;4.450;2022-08-03T06:50:00;37.90;1.00
26053;DHT22;13826;51.186;4.450;2022-08-03T06:52:25;37.80;1.00
26053;DHT22;13826;51.186;4.450;2022-08-03T06:54:51;37.60;1.00
26053;DHT22;13826;51.186;4.450;2022-08-03T06:57:17;38.60;1.00
26053;DHT22;13826;51.186;4.450;2022-08-03T06:59:43;38.60;1.00
26053;DHT22;13826;51.186;4.450;2022-08-03T07:02:09;38.20;1.00
26053;DHT22;13826;51.186;4.450;2022-08-03T07:04:36;38.80;1.00
26053;DHT22;13826;51.186;4.450;2022-08-03T07:07:02;38.50;1.00
26053;DHT22;13826;51.186;4.450;2022-08-03T07:09:27;38.90;1.00
26053;DHT22;13826;51.186;4.450;2022-08-03T07:11:53;39.60;1.00
26053;DHT22;13826;51.186;4.450;2022-08-03T07:14:20;40.00;1.00
26053;DHT22;13826;51.186;4.450;2022-08-03T07:16:46;39.70;1.00
26053;DHT22;13826;51.186;4.450;2022-08-03T07:19:12;39.70;1.00
26053;DHT22;13826;51.186;4.450;2022-08-03T07:21:37;39.10;1.00
26053;DHT22;13826;51.186;4.450;2022-08-03T07:24:03;39.80;1.00
26053;DHT22;13826;51.186;4.450;2022-08-03T07:26:29;39.90;1.00
26053;DHT22;13826;51.186;4.450;2022-08-03T07:28:55;40.00;1.00
26053;DHT22;13826;51.186;4.450;2022-08-03T07:31:21;40.60;1.00
26053;DHT22;13826;51.186;4.450;2022-08-03T07:33:46;40.50;1.00
26053;DHT22;13826;51.186;4.450;2022-08-03T07:36:12;41.60;1.00
26053;DHT22;13826;51.186;4.450;2022-08-03T07:38:38;41.10;1.00
26053;DHT22;13826;51.186;4.450;2022-08-03T07:41:03;41.30;1.00
26053;DHT22;13826;51.186;4.450;2022-08-03T07:43:29;41.10;1.00
26053;DHT22;13826;51.186;4.450;2022-08-03T07:45:55;40.90;1.00
26053;DHT22;13826;51.186;4.450;2022-08-03T07:48:20;41.20;1.00
26053;DHT22;13826;51.186;4.450;2022-08-03T07:50:46;41.50;1.00
26053;DHT22;13826;51.186;4.450;2022-08-03T07:53:12;41.60;1.00
26053;DHT22;13826;51.186;4.450;2022-08-03T07:55:38;41.00;1.00
26053;DHT22;13826;51.186;4.450;2022-08-03T07:58:11;42.10;1.00
26053;DHT22;13826;51.186;4.450;2022-08-03T08:00:40;42.90;1.00
26053;DHT22;13826;51.186;4.450;2022-08-03T08:03:06;42.80;1.00
26053;DHT22;13826;51.186;4.450;2022-08-03T08:05:32;42.60;1.00
26053;DHT22;13826;51.186;4.450;2022-08-03T08:07:58;42.30;1.00
26053;DHT22;13826;51.186;4.450;2022-08-03T08:10:24;41.80;1.00
26053;DHT22;13826;51.186;4.450;2022-08-03T08:12:50;41.60;1.00
26053;DHT22;13826;51.186;4.450;2022-08-03T08:15:16;42.90;1.00
26053;DHT22;13826;51.186;4.450;2022-08-03T08:17:53;43.30;1.00
26053;DHT22;13826;51.186;4.450;2022-08-03T08:20:25;43.00;1.00
26053;DHT22;13826;51.186;4.450;2022-08-03T08:22:51;43.40;1.00
26053;DHT22;13826;51.186;4.450;2022-08-03T08:25:16;43.50;1.00
26053;DHT22;13826;51.186;4.450;2022-08-03T08:27:49;43.50;1.00
26053;DHT22;13826;51.186;4.450;2022-08-03T08:30:17;41.60;1.00
26053;DHT22;13826;51.186;4.450;2022-08-03T08:32:46;41.80;1.00
26053;DHT22;13826;51.186;4.450;2022-08-03T08:35:12;42.10;1.00
26053;DHT22;13826;51.186;4.450;2022-08-03T08:37:38;42.70;1.00
26053;DHT22;13826;51.186;4.450;2022-08-03T08:40:05;43.10;1.00
26053;DHT22;13826;51.186;4.450;2022-08-03T08:42:32;43.10;1.00
26053;DHT22;13826;51.186;4.450;2022-08-03T08:44:59;42.80;1.00
26053;DHT22;13826;51.186;4.450;2022-08-03T08:47:28;42.80;1.00
26053;DHT22;13826;51.186;4.450;2022-08-03T08:49:57;42.70;1.00
26053;DHT22;13826;51.186;4.450;2022-08-03T08:52:32;42.90;1.00
26053;DHT22;13826;51.186;4.450;2022-08-03T08:55:01;43.60;1.00
26053;DHT22;13826;51.186;4.450;2022-08-03T08:57:37;43.50;1.00
26053;DHT22;13826;51.186;4.450;2022-08-03T09:00:10;42.90;1.00
26053;DHT22;13826;51.186;4.450;2022-08-03T09:02:40;43.20;1.00
26053;DHT22;13826;51.186;4.450;2022-08-03T09:05:10;42.80;1.00
26053;DHT22;13826;51.186;4.450;2022-08-03T09:07:37;43.60;1.00
26053;DHT22;13826;51.186;4.450;2022-08-03T09:10:04;44.40;1.00
26053;DHT22;13826;51.186;4.450;2022-08-03T09:12:45;43.90;1.00
26053;DHT22;13826;51.186;4.450;2022-08-03T09:15:23;44.30;1.00
26053;DHT22;13826;51.186;4.450;2022-08-03T09:17:50;44.50;1.00
26053;DHT22;13826;51.186;4.450;2022-08-03T09:20:17;44.40;1.00
26053;DHT22;13826;51.186;4.450;2022-08-03T09:23:01;45.40;1.00
26053;DHT22;13826;51.186;4.450;2022-08-03T09:28:12;44.20;1.00
26053;DHT22;13826;51.186;4.450;2022-08-03T09:30:40;44.80;1.00
26053;DHT22;13826;51.186;4.450;2022-08-03T09:33:08;45.40;1.00
26053;DHT22;13826;51.186;4.450;2022-08-03T09:35:47;45.80;1.00
26053;DHT22;13826;51.186;4.450;2022-08-03T09:38:15;45.30;1.00
26053;DHT22;13826;51.186;4.450;2022-08-03T09:40:42;45.60;1.00
26053;DHT22;13826;51.186;4.450;2022-08-03T09:43:08;43.40;1.00
26053;DHT22;13826;51.186;4.450;2022-08-03T09:45:35;43.20;1.00
26053;DHT22;13826;51.186;4.450;2022-08-03T09:48:26;43.70;1.00
26053;DHT22;13826;51.186;4.450;2022-08-03T09:50:55;43.60;1.00
26053;DHT22;13826;51.186;4.450;2022-08-03T09:53:21;44.10;1.00
26053;DHT22;13826;51.186;4.450;2022-08-03T09:55:55;45.50;1.00
26053;DHT22;13826;51.186;4.450;2022-08-03T09:58:21;45.90;1.00
26053;DHT22;13826;51.186;4.450;2022-08-03T10:03:19;46.60;1.00
26053;DHT22;13826;51.186;4.450;2022-08-03T10:05:45;46.80;1.00
26053;DHT22;13826;51.186;4.450;2022-08-03T10:08:15;46.40;1.00
26053;DHT22;13826;51.186;4.450;2022-08-03T10:10:43;46.30;1.00
26053;DHT22;13826;51.186;4.450;2022-08-03T10:13:17;45.40;1.00
26053;DHT22;13826;51.186;4.450;2022-08-03T10:15:43;44.90;1.00
26053;DHT22;13826;51.186;4.450;2022-08-03T10:18:09;45.40;1.00
26053;DHT22;13826;51.186;4.450;2022-08-03T10:20:37;45.80;1.00
26053;DHT22;13826;51.186;4.450;2022-08-03T10:23:07;45.90;1.00
26053;DHT22;13826;51.186;4.450;2022-08-03T10:25:37;45.60;1.00
26053;DHT22;13826;51.186;4.450;2022-08-03T10:28:04;44.20;1.00
26053;DHT22;13826;51.186;4.450;2022-08-03T10:30:34;45.10;1.00
26053;DHT22;13826;51.186;4.450;2022-08-03T10:33:18;45.00;1.00
26053;DHT22;13826;51.186;4.450;2022-08-03T10:35:46;45.10;1.00
26053;DHT22;13826;51.186;4.450;2022-08-03T10:38:17;44.80;1.00
26053;DHT22;13826;51.186;4.450;2022-08-03T10:40:44;44.90;1.00
26053;DHT22;13826;51.186;4.450;2022-08-03T10:43:19;44.50;1.00
26053;DHT22;13826;51.186;4.450;2022-08-03T10:45:45;44.20;1.00
26053;DHT22;13826;51.186;4.450;2022-08-03T10:48:12;44.80;1.00
26053;DHT22;13826;51.186;4.450;2022-08-03T10:50:40;45.20;1.00
26053;DHT22;13826;51.186;4.450;2022-08-03T10:53:08;45.30;1.00
26053;DHT22;13826;51.186;4.450;2022-08-03T10:55:43;45.80;1.00
26053;DHT22;13826;51.186;4.450;2022-08-03T11:01:07;44.60;1.00
26053;DHT22;13826;51.186;4.450;2022-08-03T11:06:24;44.30;1.00
26053;DHT22;13826;51.186;4.450;2022-08-03T11:11:42;44.90;1.00
26053;DHT22;13826;51.186;4.450;2022-08-03T11:14:11;45.10;1.00
26053;DHT22;13826;51.186;4.450;2022-08-03T11:16:41;45.00;1.00
26053;DHT22;13826;51.186;4.450;2022-08-03T11:19:12;45.20;1.00
26053;DHT22;13826;51.186;4.450;2022-08-03T11:35:30;43.00;1.00
26053;DHT22;13826;51.186;4.450;2022-08-03T11:45:57;42.30;1.00
26053;DHT22;13826;51.186;4.450;2022-08-03T11:48:33;43.10;1.00
26053;DHT22;13826;51.186;4.450;2022-08-03T11:51:04;43.00;1.00
26053;DHT22;13826;51.186;4.450;2022-08-03T11:53:30;42.70;1.00
26053;DHT22;13826;51.186;4.450;2022-08-03T11:56:01;43.00;1.00
26053;DHT22;13826;51.186;4.450;2022-08-03T11:58:27;42.80;1.00
26053;DHT22;13826;51.186;4.450;2022-08-03T12:01:06;42.70;1.00
26053;DHT22;13826;51.186;4.450;2022-08-03T12:03:34;42.30;1.00
26053;DHT22;13826;51.186;4.450;2022-08-03T12:06:00;41.80;1.00
26053;DHT22;13826;51.186;4.450;2022-08-03T12:10:54;39.90;1.00
26053;DHT22;13826;51.186;4.450;2022-08-03T12:13:21;39.00;1.00
26053;DHT22;13826;51.186;4.450;2022-08-03T12:15:52;38.30;1.00
26053;DHT22;13826;51.186;4.450;2022-08-03T12:18:19;37.60;1.00
26053;DHT22;13826;51.186;4.450;2022-08-03T12:20:48;37.30;1.00
26053;DHT22;13826;51.186;4.450;2022-08-03T12:23:14;37.30;1.00
26053;DHT22;13826;51.186;4.450;2022-08-03T12:25:42;37.40;1.00
26053;DHT22;13826;51.186;4.450;2022-08-03T12:28:16;37.20;1.00
26053;DHT22;13826;51.186;4.450;2022-08-03T12:30:45;36.90;1.00
26053;DHT22;13826;51.186;4.450;2022-08-03T12:33:24;36.50;1.00
26053;DHT22;13826;51.186;4.450;2022-08-03T12:36:08;36.70;1.00
26053;DHT22;13826;51.186;4.450;2022-08-03T12:38:38;37.10;1.00
26053;DHT22;13826;51.186;4.450;2022-08-03T12:41:06;37.30;1.00
26053;DHT22;13826;51.186;4.450;2022-08-03T12:43:33;37.20;1.00
26053;DHT22;13826;51.186;4.450;2022-08-03T12:46:19;36.80;1.00
26053;DHT22;13826;51.186;4.450;2022-08-03T12:51:28;37.10;1.00
26053;DHT22;13826;51.186;4.450;2022-08-03T12:53:55;37.10;1.00
26053;DHT22;13826;51.186;4.450;2022-08-03T12:56:21;37.30;1.00
26053;DHT22;13826;51.186;4.450;2022-08-03T12:58:47;37.40;1.00
26053;DHT22;13826;51.186;4.450;2022-08-03T13:01:15;37.20;1.00
26053;DHT22;13826;51.186;4.450;2022-08-03T13:03:42;36.90;1.00
26053;DHT22;13826;51.186;4.450;2022-08-03T13:06:24;36.70;1.00
26053;DHT22;13826;51.186;4.450;2022-08-03T13:09:06;36.20;1.00
26053;DHT22;13826;51.186;4.450;2022-08-03T13:11:32;36.10;1.00
26053;DHT22;13826;51.186;4.450;2022-08-03T13:13:58;35.80;1.00
26053;DHT22;13826;51.186;4.450;2022-08-03T13:16:24;35.60;1.00
26053;DHT22;13826;51.186;4.450;2022-08-03T13:18:50;35.70;1.00
26053;DHT22;13826;51.186;4.450;2022-08-03T13:21:19;35.80;1.00
26053;DHT22;13826;51.186;4.450;2022-08-03T13:23:45;35.80;1.00
26053;DHT22;13826;51.186;4.450;2022-08-03T13:26:12;36.00;1.00
26053;DHT22;13826;51.186;4.450;2022-08-03T13:28:38;36.10;1.00
26053;DHT22;13826;51.186;4.450;2022-08-03T13:31:05;36.40;1.00
26053;DHT22;13826;51.186;4.450;2022-08-03T13:33:30;36.60;1.00
26053;DHT22;13826;51.186;4.450;2022-08-03T13:35:56;36.60;1.00
26053;DHT22;13826;51.186;4.450;2022-08-03T13:38:22;36.80;1.00
26053;DHT22;13826;51.186;4.450;2022-08-03T13:40:50;36.70;1.00
26053;DHT22;13826;51.186;4.450;2022-08-03T13:43:16;36.30;1.00
26053;DHT22;13826;51.186;4.450;2022-08-03T13:45:42;35.90;1.00
26053;DHT22;13826;51.186;4.450;2022-08-03T13:48:08;35.80;1.00
26053;DHT22;13826;51.186;4.450;2022-08-03T13:50:33;35.70;1.00
26053;DHT22;13826;51.186;4.450;2022-08-03T13:52:59;36.10;1.00
26053;DHT22;13826;51.186;4.450;2022-08-03T13:55:25;36.20;1.00
26053;DHT22;13826;51.186;4.450;2022-08-03T13:57:50;36.10;1.00
26053;DHT22;13826;51.186;4.450;2022-08-03T14:00:17;36.00;1.00
26053;DHT22;13826;51.186;4.450;2022-08-03T14:02:43;35.70;1.00
26053;DHT22;13826;51.186;4.450;2022-08-03T14:05:09;35.60;1.00
26053;DHT22;13826;51.186;4.450;2022-08-03T14:07:34;35.60;1.00
26053;DHT22;13826;51.186;4.450;2022-08-03T14:10:00;35.40;1.00
26053;DHT22;13826;51.186;4.450;2022-08-03T14:12:26;35.30;1.00
26053;DHT22;13826;51.186;4.450;2022-08-03T14:14:52;35.10;1.00
26053;DHT22;13826;51.186;4.450;2022-08-03T14:17:18;35.10;1.00
26053;DHT22;13826;51.186;4.450;2022-08-03T14:19:44;35.30;1.00
26053;DHT22;13826;51.186;4.450;2022-08-03T14:22:10;35.20;1.00
26053;DHT22;13826;51.186;4.450;2022-08-03T14:24:35;35.40;1.00
26053;DHT22;13826;51.186;4.450;2022-08-03T14:27:01;35.50;1.00
26053;DHT22;13826;51.186;4.450;2022-08-03T14:29:36;35.50;1.00
26053;DHT22;13826;51.186;4.450;2022-08-03T14:32:02;35.40;1.00
26053;DHT22;13826;51.186;4.450;2022-08-03T14:34:28;35.50;1.00
26053;DHT22;13826;51.186;4.450;2022-08-03T14:36:54;35.60;1.00
26053;DHT22;13826;51.186;4.450;2022-08-03T14:39:19;35.40;1.00
26053;DHT22;13826;51.186;4.450;2022-08-03T14:41:45;35.40;1.00
26053;DHT22;13826;51.186;4.450;2022-08-03T14:44:11;35.20;1.00
26053;DHT22;13826;51.186;4.450;2022-08-03T14:46:37;34.90;1.00
26053;DHT22;13826;51.186;4.450;2022-08-03T14:49:02;34.80;1.00
26053;DHT22;13826;51.186;4.450;2022-08-03T14:51:29;34.60;1.00
26053;DHT22;13826;51.186;4.450;2022-08-03T14:53:55;34.60;1.00
26053;DHT22;13826;51.186;4.450;2022-08-03T14:56:20;34.90;1.00
26053;DHT22;13826;51.186;4.450;2022-08-03T14:58:46;35.10;1.00
26053;DHT22;13826;51.186;4.450;2022-08-03T15:01:12;35.20;1.00
26053;DHT22;13826;51.186;4.450;2022-08-03T15:03:37;35.30;1.00
26053;DHT22;13826;51.186;4.450;2022-08-03T15:06:03;35.20;1.00
26053;DHT22;13826;51.186;4.450;2022-08-03T15:08:29;35.20;1.00
26053;DHT22;13826;51.186;4.450;2022-08-03T15:10:55;35.10;1.00
26053;DHT22;13826;51.186;4.450;2022-08-03T15:13:21;35.20;1.00
26053;DHT22;13826;51.186;4.450;2022-08-03T15:15:47;35.00;1.00
26053;DHT22;13826;51.186;4.450;2022-08-03T15:18:14;35.10;1.00
26053;DHT22;13826;51.186;4.450;2022-08-03T15:20:40;34.90;1.00
26053;DHT22;13826;51.186;4.450;2022-08-03T15:23:06;34.70;1.00
26053;DHT22;13826;51.186;4.450;2022-08-03T15:25:31;34.70;1.00
26053;DHT22;13826;51.186;4.450;2022-08-03T15:27:57;34.20;1.00
26053;DHT22;13826;51.186;4.450;2022-08-03T15:30:23;34.30;1.00
26053;DHT22;13826;51.186;4.450;2022-08-03T15:32:48;34.50;1.00
26053;DHT22;13826;51.186;4.450;2022-08-03T15:35:14;34.70;1.00
26053;DHT22;13826;51.186;4.450;2022-08-03T15:37:40;34.70;1.00
26053;DHT22;13826;51.186;4.450;2022-08-03T15:40:06;34.60;1.00
26053;DHT22;13826;51.186;4.450;2022-08-03T15:42:35;34.70;1.00
26053;DHT22;13826;51.186;4.450;2022-08-03T15:45:01;35.00;1.00
26053;DHT22;13826;51.186;4.450;2022-08-03T15:47:26;35.10;1.00
26053;DHT22;13826;51.186;4.450;2022-08-03T15:49:52;35.30;1.00
26053;DHT22;13826;51.186;4.450;2022-08-03T15:52:18;35.30;1.00
26053;DHT22;13826;51.186;4.450;2022-08-03T15:54:44;35.30;1.00
26053;DHT22;13826;51.186;4.450;2022-08-03T15:57:09;35.10;1.00
26053;DHT22;13826;51.186;4.450;2022-08-03T15:59:35;34.90;1.00
26053;DHT22;13826;51.186;4.450;2022-08-03T16:02:01;34.60;1.00
26053;DHT22;13826;51.186;4.450;2022-08-03T16:04:27;34.70;1.00
26053;DHT22;13826;51.186;4.450;2022-08-03T16:06:53;34.70;1.00
26053;DHT22;13826;51.186;4.450;2022-08-03T16:09:18;34.80;1.00
26053;DHT22;13826;51.186;4.450;2022-08-03T16:11:44;34.80;1.00
26053;DHT22;13826;51.186;4.450;2022-08-03T16:14:10;35.00;1.00
26053;DHT22;13826;51.186;4.450;2022-08-03T16:16:35;34.70;1.00
26053;DHT22;13826;51.186;4.450;2022-08-03T16:19:04;34.60;1.00
26053;DHT22;13826;51.186;4.450;2022-08-03T16:21:31;34.50;1.00
26053;DHT22;13826;51.186;4.450;2022-08-03T16:23:56;34.60;1.00
26053;DHT22;13826;51.186;4.450;2022-08-03T16:26:22;34.70;1.00
26053;DHT22;13826;51.186;4.450;2022-08-03T16:28:48;34.70;1.00
26053;DHT22;13826;51.186;4.450;2022-08-03T16:31:13;34.50;1.00
26053;DHT22;13826;51.186;4.450;2022-08-03T16:33:39;34.40;1.00
26053;DHT22;13826;51.186;4.450;2022-08-03T16:36:05;34.60;1.00
26053;DHT22;13826;51.186;4.450;2022-08-03T16:38:31;34.40;1.00
26053;DHT22;13826;51.186;4.450;2022-08-03T16:40:56;34.30;1.00